Time;durP1;ratioP1;P1;durP2;ratioP2;P2;SDS_P1;SDS_P2;PMS_P1;PMS_P2;Temp;Humidity;BMP_temperature;BMP_pressure;BME280_temperature;BME280_humidity;BME280_pressure;Samples;Min_cycle;Max_cycle;Signal;HPM_P1;HPM_P2
2023/05/04 09:03:26;;;;;;;7.70;4.30;;;;;;;11.10;100.00;99940.15;103807;1280;600557;-71
2023/05/04 09:05:54;;;;;;;5.10;4.30;;;;;;;11.24;100.00;99937.77;104940;1269;62603;-72
2023/05/04 09:08:21;;;;;;;4.60;3.80;;;;;;;11.38;100.00;99932.89;104838;1272;61777;-71
2023/05/04 09:10:48;;;;;;;5.10;3.80;;;;;;;11.52;100.00;99929.67;104888;1267;74680;-73
2023/05/04 09:13:15;;;;;;;3.70;3.40;;;;;;;11.61;100.00;99923.23;105427;1254;69759;-69
2023/05/04 09:15:42;;;;;;;3.70;3.40;;;;;;;11.70;100.00;99920.60;105542;1257;75237;-76
2023/05/04 09:18:09;;;;;;;9.70;4.50;;;;;;;11.85;100.00;99917.61;105321;1254;347648;-68
2023/05/04 09:20:44;;;;;;;7.00;3.70;;;;;;;11.97;100.00;99918.70;105546;1259;63263;-68
2023/05/04 09:23:11;;;;;;;5.30;3.20;;;;;;;12.04;100.00;99922.41;105713;1253;73491;-69
2023/05/04 09:25:47;;;;;;;5.80;3.00;;;;;;;12.08;100.00;99920.16;105595;1257;69144;-70
2023/05/04 09:28:15;;;;;;;3.70;3.50;;;;;;;12.10;100.00;99917.32;105549;1254;74881;-74
2023/05/04 09:30:42;;;;;;;3.40;3.10;;;;;;;12.20;100.00;99913.38;105909;1256;61769;-70
2023/05/04 09:33:09;;;;;;;6.50;3.10;;;;;;;12.21;100.00;99907.33;105766;1252;62811;-70
2023/05/04 09:35:40;;;;;;;3.90;2.40;;;;;;;12.26;100.00;99908.35;105661;1254;76002;-72
2023/05/04 09:38:08;;;;;;;6.60;2.50;;;;;;;12.34;100.00;99912.92;105909;1256;70928;-68
2023/05/04 09:40:39;;;;;;;4.00;2.60;;;;;;;12.46;100.00;99912.42;105583;1254;73197;-68
2023/05/04 09:43:08;;;;;;;3.10;2.70;;;;;;;12.60;100.00;99911.48;105639;1254;62245;-67
2023/05/04 09:45:42;;;;;;;6.50;3.00;;;;;;;12.73;100.00;99909.45;105584;1252;62789;-68
2023/05/04 09:48:19;;;;;;;6.20;2.80;;;;;;;12.75;100.00;99912.12;105697;1256;74667;-70
2023/05/04 09:50:48;;;;;;;3.50;2.90;;;;;;;12.75;100.00;99911.42;105882;1256;69128;-75
2023/05/04 09:53:15;;;;;;;6.40;3.40;;;;;;;12.77;100.00;99907.25;105786;1259;75464;-71
2023/05/04 09:55:42;;;;;;;4.80;4.00;;;;;;;12.78;100.00;99909.70;105787;1254;62525;-73
2023/05/04 09:58:08;;;;;;;4.40;3.40;;;;;;;12.82;100.00;99910.88;105724;1254;61391;-72
2023/05/04 10:00:35;;;;;;;3.40;3.20;;;;;;;12.87;100.00;99905.34;105833;1256;73913;-71
2023/05/04 10:03:03;;;;;;;5.20;3.20;;;;;;;12.88;100.00;99904.51;105659;1258;70945;-72
2023/05/04 10:05:29;;;;;;;4.10;3.50;;;;;;;12.91;100.00;99902.80;105417;1254;74870;-69
2023/05/04 10:07:59;;;;;;;3.90;3.60;;;;;;;12.95;100.00;99900.88;105480;1260;62611;-68
2023/05/04 10:10:26;;;;;;;4.40;4.00;;;;;;;12.94;100.00;99903.15;105592;1254;61595;-67
2023/05/04 10:12:53;;;;;;;4.00;3.70;;;;;;;12.96;100.00;99900.54;105777;1256;75620;-70
2023/05/04 10:15:20;;;;;;;5.40;3.90;;;;;;;13.00;100.00;99898.70;105487;1254;69060;-68
2023/05/04 10:17:54;;;;;;;5.50;4.10;;;;;;;13.03;100.00;99899.72;105484;1254;73781;-67
2023/05/04 10:20:48;;;;;;;4.10;3.70;;;;;;;13.07;100.00;99897.55;105522;1254;60919;-67
2023/05/04 10:23:34;;;;;;;4.70;4.00;;;;;;;13.04;100.00;99899.45;105501;1256;61733;-66
2023/05/04 10:26:38;;;;;;;6.20;4.40;;;;;;;12.97;100.00;99895.09;105623;1254;72486;-70
2023/05/04 10:29:27;;;;;;;5.90;5.00;;;;;;;12.96;100.00;99891.81;105538;1254;68780;-69
2023/05/04 10:31:55;;;;;;;4.30;3.90;;;;;;;12.96;100.00;99891.33;105404;1259;74429;-67
2023/05/04 10:34:30;;;;;;;4.70;4.30;;;;;;;12.97;100.00;99891.19;105600;1254;62153;-68
2023/05/04 10:36:58;;;;;;;6.10;5.30;;;;;;;12.98;100.00;99891.27;105651;1255;63046;-67
2023/05/04 10:39:29;;;;;;;6.10;4.80;;;;;;;12.96;100.00;99890.41;105717;1252;74791;-64
2023/05/04 10:41:58;;;;;;;6.20;4.20;;;;;;;13.00;100.00;99886.75;105598;1254;70769;-69
2023/05/04 10:44:26;;;;;;;5.20;4.80;;;;;;;13.11;100.00;99885.11;105575;1254;75404;-68
2023/05/04 10:47:04;;;;;;;5.00;4.50;;;;;;;13.24;100.00;99881.98;105740;1260;61776;-67
2023/05/04 10:49:31;;;;;;;6.70;4.70;;;;;;;13.38;100.00;99879.36;105763;1256;60327;-70
2023/05/04 10:52:05;;;;;;;6.30;5.00;;;;;;;13.48;100.00;99876.34;105591;1254;73899;-68
2023/05/04 10:54:32;;;;;;;5.20;4.70;;;;;;;13.56;100.00;99874.06;105607;1257;70560;-65
2023/05/04 10:57:03;;;;;;;5.90;5.20;;;;;;;13.64;100.00;99870.77;105777;1257;73106;-67
2023/05/04 10:59:31;;;;;;;5.00;4.50;;;;;;;13.69;100.00;99870.15;105440;1258;63695;-66
2023/05/04 11:02:00;;;;;;;6.90;4.30;;;;;;;13.71;100.00;99871.52;105555;1254;60694;-66
2023/05/04 11:04:27;;;;;;;4.40;4.00;;;;;;;13.71;100.00;99867.02;105497;1259;75252;-67
2023/05/04 11:07:01;;;;;;;4.80;4.30;;;;;;;13.71;100.00;99866.92;105325;1259;68672;-64
2023/05/04 11:09:34;;;;;;;9.10;4.20;;;;;;;13.66;100.00;99869.20;105488;1254;74935;-67
2023/05/04 11:12:01;;;;;;;4.90;3.90;;;;;;;13.65;100.00;99867.98;105591;1259;61892;-68
2023/05/04 11:14:28;;;;;;;6.50;4.40;;;;;;;13.63;100.00;99870.09;105528;1258;61683;-66
2023/05/04 11:17:06;;;;;;;3.90;3.50;;;;;;;13.55;100.00;99870.70;105453;1258;73822;-67
2023/05/04 11:19:53;;;;;;;5.20;3.70;;;;;;;13.44;100.00;99871.42;105520;1254;69216;-66
2023/05/04 11:22:20;;;;;;;4.20;3.10;;;;;;;13.39;100.00;99876.71;105556;1254;73515;-69
2023/05/04 11:24:50;;;;;;;6.80;3.00;;;;;;;13.36;100.00;99875.46;105528;1255;61587;-66
2023/05/04 11:27:26;;;;;;;5.60;3.30;;;;;;;13.32;100.00;99876.59;105624;1254;61269;-66
2023/05/04 11:29:57;;;;;;;5.20;2.70;;;;;;;13.25;100.00;99874.20;105727;1256;75465;-65
2023/05/04 11:32:45;;;;;;;3.20;2.70;;;;;;;13.16;100.00;99872.70;105452;1254;72383;-65
2023/05/04 11:35:17;;;;;;;2.70;2.40;;;;;;;13.09;100.00;99874.84;105482;1259;72417;-67
2023/05/04 11:37:45;;;;;;;4.80;2.70;;;;;;;13.01;100.00;99874.89;105473;1254;61729;-67
2023/05/04 11:40:18;;;;;;;4.80;2.50;;;;;;;12.92;100.00;99877.40;105729;1255;61513;-68
2023/05/04 11:42:45;;;;;;;2.70;2.40;;;;;;;12.85;100.00;99873.33;105602;1252;72214;-64
2023/05/04 11:45:22;;;;;;;2.50;2.20;;;;;;;12.82;100.00;99875.27;105480;1254;69465;-65
2023/05/04 11:47:50;;;;;;;5.40;3.40;;;;;;;12.80;100.00;99875.02;105567;1254;75368;-66
2023/05/04 11:50:18;;;;;;;3.30;2.80;;;;;;;12.78;100.00;99872.80;105653;1259;61987;-68
2023/05/04 11:52:46;;;;;;;4.80;3.50;;;;;;;12.75;100.00;99871.99;105829;1256;61828;-68
2023/05/04 11:55:27;;;;;;;3.20;3.00;;;;;;;12.70;100.00;99870.51;105582;1254;74265;-69
2023/05/04 11:58:05;;;;;;;2.80;2.60;;;;;;;12.65;100.00;99867.99;105617;1254;68165;-68
2023/05/04 12:00:42;;;;;;;3.00;2.70;;;;;;;12.63;100.00;99866.16;105620;1254;74357;-70
2023/05/04 12:03:14;;;;;;;5.10;3.50;;;;;;;12.61;100.00;99864.04;105643;1260;62432;-67
2023/05/04 12:05:51;;;;;;;3.70;3.40;;;;;;;12.62;100.00;99864.66;105738;1252;60886;-71
2023/05/04 12:08:26;;;;;;;2.90;2.70;;;;;;;12.63;100.00;99860.78;105737;1257;75516;-73
2023/05/04 12:11:13;;;;;;;4.40;2.90;;;;;;;12.61;100.00;99859.43;105869;1253;69590;-66
2023/05/04 12:13:41;;;;;;;2.70;2.50;;;;;;;12.54;100.00;99863.64;105543;1254;75162;-67
2023/05/04 12:16:13;;;;;;;4.20;3.30;;;;;;;12.48;100.00;99862.45;105655;1254;62824;-67
2023/05/04 12:18:40;;;;;;;3.00;2.70;;;;;;;12.45;100.00;99859.86;105583;1254;62540;-65
2023/05/04 12:21:09;;;;;;;2.40;2.20;;;;;;;12.44;100.00;99857.67;105597;1254;73420;-72
2023/05/04 12:23:37;;;;;;;2.70;2.50;;;;;;;12.42;100.00;99857.64;105623;1254;67158;-66
2023/05/04 12:26:04;;;;;;;4.50;2.20;;;;;;;12.41;100.00;99859.53;105568;1254;75271;-66
2023/05/04 12:28:32;;;;;;;2.70;2.10;;;;;;;12.41;100.00;99857.25;105589;1254;61627;-64
2023/05/04 12:30:59;;;;;;;2.80;1.80;;;;;;;12.44;100.00;99856.73;105748;1258;61183;-66
2023/05/04 12:33:26;;;;;;;2.70;1.70;;;;;;;12.44;100.00;99853.12;105559;1254;74217;-66
2023/05/04 12:35:53;;;;;;;1.80;1.70;;;;;;;12.44;100.00;99849.33;105669;1258;69657;-63
2023/05/04 12:38:20;;;;;;;2.50;2.00;;;;;;;12.43;100.00;99848.99;105726;1254;75571;-65
2023/05/04 12:40:47;;;;;;;3.40;2.30;;;;;;;12.42;100.00;99853.23;105631;1254;62928;-63
2023/05/04 12:43:14;;;;;;;2.40;2.00;;;;;;;12.42;100.00;99854.87;105631;1254;60035;-68
2023/05/04 12:45:41;;;;;;;2.10;1.90;;;;;;;12.38;100.00;99854.96;105578;1254;73870;-68
2023/05/04 12:48:08;;;;;;;2.30;2.10;;;;;;;12.31;100.00;99854.65;105602;1254;70441;-71
2023/05/04 12:50:34;;;;;;;2.50;1.70;;;;;;;12.23;100.00;99848.80;105784;1256;75195;-68
2023/05/04 12:53:03;;;;;;;3.00;2.60;;;;;;;12.18;100.00;99850.96;105607;1254;61598;-72
2023/05/04 12:55:30;;;;;;;4.70;2.00;;;;;;;12.16;100.00;99849.77;105531;1260;62755;-73
2023/05/04 12:57:57;;;;;;;4.20;2.10;;;;;;;12.14;100.00;99848.08;105572;1254;75088;-70
2023/05/04 13:00:24;;;;;;;8.00;2.60;;;;;;;12.12;100.00;99851.67;105714;1260;69101;-72
2023/05/04 13:02:51;;;;;;;2.20;1.70;;;;;;;12.09;100.00;99850.27;105333;1257;75553;-72
2023/05/04 13:05:19;;;;;;;5.40;1.70;;;;;;;12.07;100.00;99846.52;105716;1253;63036;-71
2023/05/04 13:07:46;;;;;;;2.00;1.70;;;;;;;12.06;100.00;99843.60;109469;1254;62589;-70
2023/05/04 13:10:13;;;;;;;2.90;2.10;;;;;;;12.07;100.00;99844.96;109559;1253;75378;-68
2023/05/04 13:12:40;;;;;;;8.90;2.40;;;;;;;12.07;100.00;99846.52;109484;1253;69259;-69
2023/05/04 13:15:07;;;;;;;2.50;2.00;;;;;;;12.07;100.00;99846.69;109503;1254;74458;-69
2023/05/04 13:17:35;;;;;;;4.00;2.30;;;;;;;12.07;100.00;99845.11;109386;1257;62336;-70
2023/05/04 13:20:04;;;;;;;2.40;2.20;;;;;;;12.09;100.00;99843.10;109417;1254;60372;-67
2023/05/04 13:22:32;;;;;;;2.70;2.40;;;;;;;12.09;100.00;99846.69;109412;1252;75884;-65
2023/05/04 13:24:59;;;;;;;4.20;2.60;;;;;;;12.09;100.00;99848.55;109456;1253;68783;-68
2023/05/04 13:27:25;;;;;;;4.80;3.20;;;;;;;12.09;100.00;99844.55;109416;1258;73812;-69
2023/05/04 13:29:52;;;;;;;4.70;2.00;;;;;;;12.10;100.00;99843.18;109490;1251;62900;-69
2023/05/04 13:32:19;;;;;;;8.20;2.70;;;;;;;12.11;100.00;99842.02;109451;1254;61377;-69
2023/05/04 13:34:47;;;;;;;3.50;2.30;;;;;;;12.11;100.00;99843.35;109483;1254;74109;-68
2023/05/04 13:37:17;;;;;;;7.50;2.00;;;;;;;12.11;100.00;99842.02;109628;1254;69180;-70
2023/05/04 13:39:44;;;;;;;7.90;2.60;;;;;;;12.09;100.00;99842.95;109573;1251;74906;-67
2023/05/04 13:42:11;;;;;;;6.20;2.10;;;;;;;12.07;100.00;99840.63;109534;1251;62618;-70
2023/05/04 13:44:44;;;;;;;2.10;1.90;;;;;;;12.05;100.00;99838.55;109620;1253;61050;-67
2023/05/04 13:47:13;;;;;;;5.80;2.30;;;;;;;12.04;100.00;99841.73;109543;1254;74736;-70
2023/05/04 13:49:41;;;;;;;2.90;1.90;;;;;;;12.05;100.00;99839.30;109516;1253;68250;-66
2023/05/04 13:52:08;;;;;;;2.20;2.10;;;;;;;12.06;100.00;99839.84;109515;1253;74228;-69
2023/05/04 13:54:36;;;;;;;4.90;2.10;;;;;;;12.05;100.00;99838.89;109561;1251;62571;-71
2023/05/04 13:57:03;;;;;;;4.10;2.30;;;;;;;12.04;100.00;99834.77;109613;1257;61065;-69
2023/05/04 13:59:30;;;;;;;5.50;2.00;;;;;;;12.05;100.00;99831.77;109517;1251;75970;-69
2023/05/04 14:01:56;;;;;;;3.10;1.90;;;;;;;12.08;100.00;99830.45;109579;1253;69979;-68
2023/05/04 14:04:23;;;;;;;4.10;2.60;;;;;;;12.08;100.00;99827.59;109572;1251;73457;-67
2023/05/04 14:06:50;;;;;;;2.70;2.00;;;;;;;12.07;100.00;99827.29;109536;1252;62189;-68
2023/05/04 14:09:18;;;;;;;5.70;2.30;;;;;;;12.07;100.00;99825.89;109564;1251;62673;-70
2023/05/04 14:11:45;;;;;;;3.30;2.20;;;;;;;12.09;100.00;99827.78;109591;1251;71909;-66
2023/05/04 14:14:11;;;;;;;6.00;1.90;;;;;;;12.09;100.00;99825.89;109596;1251;68841;-66
2023/05/04 14:16:38;;;;;;;1.90;1.80;;;;;;;12.09;100.00;99822.13;109542;1251;74759;-66
2023/05/04 14:19:05;;;;;;;6.30;2.30;;;;;;;12.09;100.00;99819.05;109612;1251;61372;-67
2023/05/04 14:21:32;;;;;;;4.30;1.80;;;;;;;12.08;100.00;99815.08;109607;1251;62189;-70
2023/05/04 14:23:59;;;;;;;4.30;1.90;;;;;;;12.07;100.00;99813.04;109572;1251;75974;-68
2023/05/04 14:26:26;;;;;;;3.30;2.00;;;;;;;12.04;100.00;99806.30;109452;1251;69738;-69
2023/05/04 14:28:52;;;;;;;3.90;2.40;;;;;;;12.01;100.00;99804.55;109577;1253;73989;-68
2023/05/04 14:31:19;;;;;;;2.10;1.90;;;;;;;11.99;100.00;99800.60;109567;1251;61703;-68
2023/05/04 14:33:47;;;;;;;4.10;2.10;;;;;;;11.98;100.00;99804.21;109625;1251;61626;-70
2023/05/04 14:36:13;;;;;;;2.40;2.20;;;;;;;11.96;100.00;99803.53;109516;1251;76028;-68
2023/05/04 14:38:41;;;;;;;3.30;2.60;;;;;;;11.92;100.00;99798.81;109475;1251;68440;-68
2023/05/04 14:41:09;;;;;;;4.90;2.40;;;;;;;11.88;100.00;99796.92;109495;1254;73278;-67
2023/05/04 14:43:35;;;;;;;4.00;2.80;;;;;;;11.85;100.00;99795.23;109459;1251;62401;-65
2023/05/04 14:46:02;;;;;;;7.20;3.70;;;;;;;11.82;100.00;99796.20;109576;1251;60967;-68
2023/05/04 14:48:29;;;;;;;8.80;2.70;;;;;;;11.81;100.00;99796.74;109596;1251;74837;-68
2023/05/04 14:50:56;;;;;;;2.30;2.10;;;;;;;11.80;100.00;99800.71;109658;1251;69535;-68
2023/05/04 14:53:23;;;;;;;2.00;1.90;;;;;;;11.80;100.00;99799.84;109583;1251;75205;-66
2023/05/04 14:55:50;;;;;;;2.40;2.20;;;;;;;11.80;100.00;99804.10;109530;1251;59973;-66
2023/05/04 14:58:17;;;;;;;2.50;2.20;;;;;;;11.80;100.00;99804.92;109557;1252;61369;-66
2023/05/04 15:00:44;;;;;;;2.30;1.90;;;;;;;11.79;100.00;99804.90;109577;1252;75866;-66
2023/05/04 15:03:11;;;;;;;4.50;2.50;;;;;;;11.76;100.00;99799.84;109533;1254;69346;-62
2023/05/04 15:05:38;;;;;;;3.50;2.50;;;;;;;11.76;100.00;99801.27;109568;1252;72163;-65
2023/05/04 15:08:05;;;;;;;6.70;2.10;;;;;;;11.76;100.00;99805.39;109587;1254;60588;-68
2023/05/04 15:10:32;;;;;;;2.40;2.20;;;;;;;11.76;100.00;99804.38;109526;1258;60266;-66
2023/05/04 15:12:59;;;;;;;3.20;2.20;;;;;;;11.76;100.00;99803.84;109594;1251;76856;-65
2023/05/04 15:15:26;;;;;;;6.20;2.60;;;;;;;11.77;100.00;99802.48;109677;1251;68028;-66
2023/05/04 15:17:53;;;;;;;2.40;2.20;;;;;;;11.79;100.00;99804.89;109582;1254;73630;-63
2023/05/04 15:20:19;;;;;;;2.40;2.20;;;;;;;11.79;100.00;99807.16;109525;1254;62255;-66
2023/05/04 15:22:47;;;;;;;3.10;2.80;;;;;;;11.80;100.00;99804.97;109566;1251;62267;-62
2023/05/04 15:25:15;;;;;;;3.00;2.80;;;;;;;11.79;100.00;99805.39;109587;1251;75136;-59
2023/05/04 15:27:42;;;;;;;5.30;2.70;;;;;;;11.79;100.00;99807.77;109610;1251;69922;-75
2023/05/04 15:30:10;;;;;;;2.70;2.50;;;;;;;11.89;100.00;99812.88;109585;1251;74916;-73
2023/05/04 15:32:37;;;;;;;3.30;3.00;;;;;;;11.97;100.00;99811.27;109547;1254;63431;-67
2023/05/04 15:35:04;;;;;;;3.50;2.80;;;;;;;11.98;100.00;99808.79;109562;1251;61806;-65
2023/05/04 15:37:32;;;;;;;4.10;3.00;;;;;;;11.97;100.00;99806.19;109656;1251;75568;-68
2023/05/04 15:39:59;;;;;;;3.80;3.10;;;;;;;12.00;100.00;99803.11;109560;1251;67859;-67
2023/05/04 15:42:28;;;;;;;4.40;2.90;;;;;;;12.00;100.00;99800.51;109610;1251;74599;-65
2023/05/04 15:44:55;;;;;;;4.40;2.60;;;;;;;11.98;100.00;99801.89;109501;1253;62223;-68
2023/05/04 15:47:22;;;;;;;3.70;3.40;;;;;;;11.93;100.00;99804.00;109535;1251;61716;-66
2023/05/04 15:49:49;;;;;;;3.30;3.00;;;;;;;11.88;100.00;99801.73;109590;1251;73884;-67
2023/05/04 15:52:16;;;;;;;4.30;2.80;;;;;;;11.87;100.00;99800.86;109497;1251;69300;-67
2023/05/04 15:54:42;;;;;;;2.80;2.60;;;;;;;11.84;100.00;99795.31;109455;1256;71193;-63
2023/05/04 15:57:09;;;;;;;3.10;2.80;;;;;;;11.80;100.00;99794.06;109486;1253;62259;-64
2023/05/04 15:59:36;;;;;;;3.30;2.90;;;;;;;11.79;100.00;99786.23;109412;1251;61811;-64
2023/05/04 16:02:04;;;;;;;2.80;2.50;;;;;;;11.79;100.00;99785.21;109411;1252;72430;-63
2023/05/04 16:04:32;;;;;;;3.80;2.70;;;;;;;11.76;100.00;99781.36;109508;1251;70198;-63
2023/05/04 16:06:58;;;;;;;3.20;3.00;;;;;;;11.74;100.00;99774.30;109388;1254;73954;-63
2023/05/04 16:09:26;;;;;;;3.60;3.20;;;;;;;11.74;100.00;99770.39;109464;1251;63977;-62
2023/05/04 16:11:53;;;;;;;4.30;3.20;;;;;;;11.74;100.00;99768.26;109469;1251;61325;-63
2023/05/04 16:14:20;;;;;;;4.70;2.90;;;;;;;11.73;100.00;99768.61;109403;1251;74826;-65
2023/05/04 16:16:47;;;;;;;4.00;3.60;;;;;;;11.73;100.00;99761.52;109507;1251;67065;-64
2023/05/04 16:19:14;;;;;;;3.40;3.10;;;;;;;11.72;100.00;99752.35;109335;1251;76882;-62
2023/05/04 16:21:42;;;;;;;4.00;3.00;;;;;;;11.71;100.00;99750.85;109588;1253;60336;-63
2023/05/04 16:24:11;;;;;;;3.60;3.30;;;;;;;11.70;100.00;99752.44;109450;1253;61128;-65
2023/05/04 16:26:39;;;;;;;4.70;3.40;;;;;;;11.68;100.00;99753.03;109498;1251;72909;-63
2023/05/04 16:29:05;;;;;;;3.70;2.80;;;;;;;11.67;100.00;99751.30;109574;1251;68203;-65
2023/05/04 16:31:32;;;;;;;8.10;3.40;;;;;;;11.66;100.00;99754.83;109537;1251;72748;-64
2023/05/04 16:33:59;;;;;;;2.40;2.20;;;;;;;11.66;100.00;99756.55;109376;1251;63661;-64
2023/05/04 16:36:26;;;;;;;2.90;2.70;;;;;;;11.66;100.00;99757.10;109358;1251;62404;-62
2023/05/04 16:38:53;;;;;;;3.00;2.70;;;;;;;11.65;100.00;99764.61;109442;1253;72545;-63
2023/05/04 16:41:19;;;;;;;3.60;2.40;;;;;;;11.65;100.00;99763.95;109398;1251;69974;-64
2023/05/04 16:43:47;;;;;;;5.50;2.60;;;;;;;11.66;100.00;99765.98;109449;1251;74065;-63
2023/05/04 16:46:15;;;;;;;4.10;2.50;;;;;;;11.66;100.00;99768.31;109431;1251;62384;-64
2023/05/04 16:48:42;;;;;;;2.70;2.30;;;;;;;11.64;100.00;99764.46;109509;1251;61849;-62
2023/05/04 16:51:09;;;;;;;3.60;2.30;;;;;;;11.57;100.00;99769.37;109484;1251;76121;-64
2023/05/04 16:53:36;;;;;;;2.10;1.90;;;;;;;11.51;100.00;99760.72;109441;1251;69143;-63
2023/05/04 16:56:03;;;;;;;2.80;2.30;;;;;;;11.47;100.00;99767.76;109498;1251;72696;-64
2023/05/04 16:58:29;;;;;;;2.60;2.40;;;;;;;11.43;100.00;99766.27;109546;1251;61374;-63
2023/05/04 17:00:57;;;;;;;2.80;2.40;;;;;;;11.41;100.00;99766.33;109526;1251;60364;-71
2023/05/04 17:03:24;;;;;;;4.00;2.90;;;;;;;11.42;100.00;99769.77;109470;1254;74821;-68
2023/05/04 17:05:51;;;;;;;4.40;2.80;;;;;;;11.42;100.00;99766.08;109516;1253;68546;-69
2023/05/04 17:08:17;;;;;;;2.80;2.60;;;;;;;11.40;100.00;99765.04;109585;1253;72421;-72
2023/05/04 17:10:44;;;;;;;2.80;2.50;;;;;;;11.36;100.00;99765.41;109553;1253;64232;-69
2023/05/04 17:13:11;;;;;;;3.30;2.60;;;;;;;11.33;100.00;99766.02;109524;1253;60920;-70
2023/05/04 17:15:38;;;;;;;3.00;2.70;;;;;;;11.31;100.00;99769.98;109446;1254;76074;-68
2023/05/04 17:18:04;;;;;;;3.00;2.30;;;;;;;11.28;100.00;99771.64;109518;1254;70260;-68
2023/05/04 17:20:31;;;;;;;3.50;2.30;;;;;;;11.26;100.00;99770.85;109492;1253;74803;-68
2023/05/04 17:22:58;;;;;;;3.30;2.60;;;;;;;11.25;100.00;99770.42;109488;1252;61151;-68
2023/05/04 17:25:25;;;;;;;3.10;2.80;;;;;;;11.23;100.00;99777.05;109518;1253;61533;-67
2023/05/04 17:27:53;;;;;;;4.20;2.90;;;;;;;11.20;100.00;99780.00;109586;1253;76223;-65
2023/05/04 17:30:20;;;;;;;5.10;2.70;;;;;;;11.17;100.00;99784.44;109549;1253;69003;-68
2023/05/04 17:32:47;;;;;;;3.10;2.80;;;;;;;11.14;100.00;99791.15;109586;1254;74956;-68
2023/05/04 17:35:14;;;;;;;5.40;3.20;;;;;;;11.12;100.00;99789.56;109538;1256;64068;-67
2023/05/04 17:37:54;;;;;;;4.20;3.20;;;;;;;11.11;100.00;99793.91;109535;1252;62507;-68
2023/05/04 17:40:26;;;;;;;3.10;2.70;;;;;;;11.09;100.00;99797.51;109539;1254;74426;-70
2023/05/04 17:42:54;;;;;;;3.20;2.70;;;;;;;11.05;100.00;99800.56;109533;1254;69294;-66
2023/05/04 17:45:20;;;;;;;3.90;2.80;;;;;;;11.04;100.00;99801.80;109534;1254;73184;-66
2023/05/04 17:47:49;;;;;;;3.00;2.70;;;;;;;11.00;100.00;99802.56;109500;1252;61012;-70
2023/05/04 17:50:16;;;;;;;3.60;2.60;;;;;;;10.98;100.00;99804.59;109498;1253;62015;-67
2023/05/04 17:52:43;;;;;;;3.00;2.80;;;;;;;10.96;100.00;99805.68;109557;1253;72388;-70
2023/05/04 17:55:09;;;;;;;2.80;2.20;;;;;;;10.97;100.00;99807.86;109520;1253;68335;-64
2023/05/04 17:57:36;;;;;;;2.70;2.20;;;;;;;10.97;100.00;99806.59;109471;1254;72362;-68
2023/05/04 18:00:05;;;;;;;2.30;2.10;;;;;;;10.99;100.00;99810.27;109566;1253;61900;-69
2023/05/04 18:02:33;;;;;;;2.50;2.30;;;;;;;11.01;100.00;99813.61;109480;1254;62392;-69
2023/05/04 18:05:00;;;;;;;3.30;2.70;;;;;;;11.02;100.00;99811.96;109552;1253;76339;-67
2023/05/04 18:07:27;;;;;;;3.10;2.40;;;;;;;11.03;100.00;99810.29;109609;1253;70029;-66
2023/05/04 18:09:54;;;;;;;3.10;2.60;;;;;;;11.02;100.00;99812.95;109498;1253;75369;-67
2023/05/04 18:12:21;;;;;;;2.20;2.10;;;;;;;11.02;100.00;99813.52;109553;1251;63278;-67
2023/05/04 18:14:49;;;;;;;2.70;2.50;;;;;;;11.04;100.00;99814.44;109528;1252;59435;-67
2023/05/04 18:17:16;;;;;;;3.00;2.70;;;;;;;11.03;100.00;99817.84;109464;1253;74561;-68
2023/05/04 18:19:43;;;;;;;4.10;2.70;;;;;;;11.02;100.00;99820.14;109544;1253;69967;-68
2023/05/04 18:22:10;;;;;;;3.70;2.60;;;;;;;10.99;100.00;99823.09;109468;1254;74970;-69
2023/05/04 18:24:36;;;;;;;3.80;2.60;;;;;;;10.96;100.00;99828.02;109516;1253;61372;-69
2023/05/04 18:27:03;;;;;;;5.40;4.40;;;;;;;10.94;100.00;99835.77;109535;1252;63138;-68
2023/05/04 18:29:30;;;;;;;4.40;4.00;;;;;;;10.91;100.00;99834.29;109484;1254;72701;-68
2023/05/04 18:31:58;;;;;;;9.80;5.10;;;;;;;10.87;100.00;99834.21;109491;1253;70261;-68
2023/05/04 18:34:25;;;;;;;8.40;6.40;;;;;;;10.82;100.00;99835.74;109526;1253;73557;-66
2023/05/04 18:36:52;;;;;;;8.80;6.40;;;;;;;10.79;100.00;99835.94;109437;1252;60233;-65
2023/05/04 18:39:19;;;;;;;9.30;5.60;;;;;;;10.76;100.00;99837.48;109511;1253;61147;-69
2023/05/04 18:41:46;;;;;;;7.10;6.30;;;;;;;10.72;100.00;99840.94;109509;1253;75291;-68
2023/05/04 18:44:15;;;;;;;6.20;5.30;;;;;;;10.68;100.00;99845.45;109464;1253;69442;-68
2023/05/04 18:46:42;;;;;;;7.30;6.00;;;;;;;10.65;100.00;99839.42;109496;1252;74221;-68
2023/05/04 18:49:09;;;;;;;7.00;5.90;;;;;;;10.62;100.00;99840.41;109475;1253;62971;-64
2023/05/04 18:51:36;;;;;;;6.10;5.50;;;;;;;10.60;100.00;99842.03;109510;1252;61388;-65
2023/05/04 18:54:03;;;;;;;5.60;4.90;;;;;;;10.59;100.00;99844.41;109477;1253;74054;-65
2023/05/04 18:56:30;;;;;;;4.80;4.40;;;;;;;10.58;100.00;99842.13;109491;1253;68389;-65
2023/05/04 18:58:57;;;;;;;4.50;4.10;;;;;;;10.58;100.00;99843.72;109308;1253;74765;-65
2023/05/04 19:01:23;;;;;;;4.60;4.10;;;;;;;10.57;100.00;99840.48;109531;1251;59142;-69
2023/05/04 19:03:50;;;;;;;4.10;3.80;;;;;;;10.54;100.00;99841.98;109586;1251;62599;-65
2023/05/04 19:06:17;;;;;;;4.40;4.00;;;;;;;10.51;100.00;99841.00;109534;1253;75918;-66
2023/05/04 19:08:44;;;;;;;3.80;3.40;;;;;;;10.51;100.00;99835.75;109570;1254;69845;-67
2023/05/04 19:11:11;;;;;;;4.90;3.70;;;;;;;10.50;100.00;99831.41;109576;1251;73480;-68
2023/05/04 19:13:37;;;;;;;3.60;3.30;;;;;;;10.50;100.00;99831.36;109489;1251;63752;-67
2023/05/04 19:16:05;;;;;;;3.90;3.60;;;;;;;10.51;100.00;99829.41;109585;1251;62366;-67
2023/05/04 19:18:32;;;;;;;5.60;4.10;;;;;;;10.50;100.00;99828.95;109533;1251;74442;-67
2023/05/04 19:21:03;;;;;;;4.80;4.30;;;;;;;10.48;100.00;99830.57;109573;1251;68864;-66
2023/05/04 19:23:30;;;;;;;6.70;5.60;;;;;;;10.46;100.00;99826.88;109565;1251;74877;-67
2023/05/04 19:25:57;;;;;;;5.60;5.10;;;;;;;10.41;100.00;99826.31;109272;1251;63940;-68
2023/05/04 19:28:23;;;;;;;5.80;4.90;;;;;;;10.38;100.00;99827.89;109369;1251;62899;-66
2023/05/04 19:30:51;;;;;;;4.50;4.10;;;;;;;10.35;100.00;99831.10;109411;1251;75959;-67
2023/05/04 19:33:18;;;;;;;5.50;5.00;;;;;;;10.33;100.00;99829.50;109561;1251;68796;-67
2023/05/04 19:35:45;;;;;;;4.80;4.30;;;;;;;10.34;100.00;99830.45;109499;1251;74192;-68
2023/05/04 19:38:12;;;;;;;5.20;4.70;;;;;;;10.36;100.00;99830.44;109430;1251;60894;-67
2023/05/04 19:40:39;;;;;;;5.30;4.70;;;;;;;10.36;100.00;99831.68;109494;1251;61645;-66
2023/05/04 19:43:08;;;;;;;6.50;4.60;;;;;;;10.34;100.00;99837.05;109571;1253;72722;-67
2023/05/04 19:45:35;;;;;;;4.70;3.80;;;;;;;10.33;100.00;99838.78;109540;1251;69495;-66
2023/05/04 19:48:03;;;;;;;3.90;3.60;;;;;;;10.32;100.00;99837.02;109341;1253;74969;-67
2023/05/04 19:50:30;;;;;;;4.30;3.00;;;;;;;10.34;100.00;99837.33;109543;1251;62811;-66
2023/05/04 19:52:57;;;;;;;3.80;3.40;;;;;;;10.35;100.00;99834.47;109478;1251;60142;-66
2023/05/04 19:55:24;;;;;;;3.10;2.80;;;;;;;10.36;100.00;99832.77;109594;1251;75799;-66
2023/05/04 19:57:50;;;;;;;2.70;2.50;;;;;;;10.37;100.00;99832.84;109550;1251;69211;-66
2023/05/04 20:00:18;;;;;;;3.30;3.00;;;;;;;10.37;100.00;99831.39;109442;1251;74989;-66
2023/05/04 20:02:45;;;;;;;2.90;2.70;;;;;;;10.36;100.00;99833.08;109480;1253;63187;-67
2023/05/04 20:05:12;;;;;;;2.90;2.70;;;;;;;10.34;100.00;99829.17;109364;1251;62487;-68
2023/05/04 20:07:39;;;;;;;5.00;2.80;;;;;;;10.32;100.00;99829.63;109415;1251;75589;-67
2023/05/04 20:10:06;;;;;;;4.20;3.50;;;;;;;10.31;100.00;99833.08;109313;1251;69536;-71
2023/05/04 20:12:34;;;;;;;3.40;3.10;;;;;;;10.32;100.00;99834.09;109367;1251;74036;-66
2023/05/04 20:15:01;;;;;;;3.30;2.90;;;;;;;10.33;100.00;99834.45;109433;1251;62931;-65
2023/05/04 20:17:27;;;;;;;3.10;2.80;;;;;;;10.32;100.00;99832.42;109371;1252;62976;-67
2023/05/04 20:19:54;;;;;;;3.70;3.20;;;;;;;10.31;100.00;99831.35;109387;1251;73858;-65
2023/05/04 20:22:21;;;;;;;4.60;3.10;;;;;;;10.30;100.00;99828.59;109518;1251;68829;-70
2023/05/04 20:24:48;;;;;;;4.10;3.50;;;;;;;10.27;100.00;99830.67;109506;1251;74371;-67